Trophy — TROPHY — position and weather

sailwx.info

Track history (hours):
 
Tides and Currents Weather Stations Pressure Air Temp Water Temp Dewpoint Dewpoint Depression Visibility Wind Speed Wind Dir Waves Ship Positions

Trophy

Last reported at 2018-Feb-15 17:15 UTC. Time now 2018-Feb-18 04:45 UTC.
Position N 27°36' W 080°20'.

Length 6 m; draft 1 m.

Type: Pleasure craft. MMSI: 338300588.

Date/timePositionNaut miles runAvg speedWind from/ knotsBaromVisibWave heightAir tempDewpointWater temp
2018-Feb-15 17:15N 27°36' W 080°20'0 0.0
2018-Feb-15 15:12N 27°36' W 080°20'0 0.1
2018-Feb-15 14:58N 27°36' W 080°20'0 0.0
2018-Feb-15 14:29N 27°36' W 080°20'0 0.0
2018-Feb-15 13:59N 27°36' W 080°20'0 0.0
2018-Feb-15 13:08N 27°36' W 080°20'0 0.0
2018-Feb-15 12:55N 27°36' W 080°20'0 0.0
2018-Feb-15 04:10N 27°36' W 080°20'0 0.0
2018-Feb-15 03:54N 27°36' W 080°20'0 0.0
2018-Feb-15 03:30N 27°36' W 080°20'0 0.0
2018-Feb-15 03:00N 27°36' W 080°20'0 0.0
2018-Feb-15 02:28N 27°36' W 080°20'0 0.0
2018-Feb-15 01:59N 27°36' W 080°20'0 0.0
2018-Feb-15 01:29N 27°36' W 080°20'0 0.0
2018-Feb-14 23:30N 27°36' W 080°20'0 0.0
2018-Feb-14 23:00N 27°36' W 080°20'0 0.0
2018-Feb-14 22:27N 27°36' W 080°20'0 0.0
2018-Feb-14 22:00N 27°36' W 080°20'0 0.0
2018-Feb-14 21:30N 27°36' W 080°20'0 0.0
2018-Feb-14 20:57N 27°36' W 080°20'0 0.0
2018-Feb-14 20:27N 27°36' W 080°20'0 0.0
2018-Feb-14 19:59N 27°36' W 080°20'0 0.0
2018-Feb-14 19:29N 27°36' W 080°20'0 0.0
2018-Feb-14 19:00N 27°36' W 080°20'0 0.0
2018-Feb-14 18:30N 27°36' W 080°20'3 6.2
2018-Feb-14 17:58N 27°38' W 080°23'0 0.5
2018-Feb-14 17:30N 27°38' W 080°23'0 0.0
2018-Feb-14 15:50N 27°38' W 080°23'0 0.0
2018-Feb-14 15:25N 27°38' W 080°23'3 8.4
2018-Feb-14 15:00N 27°36' W 080°20'0 0.0
2018-Feb-14 14:27N 27°36' W 080°20'0 0.0
2018-Feb-14 13:59N 27°36' W 080°20'0 0.0
2018-Feb-14 13:29N 27°36' W 080°20'0 0.0
2018-Feb-14 12:58N 27°36' W 080°20'0 0.0
2018-Feb-14 12:25N 27°36' W 080°20'0 0.0
2018-Feb-14 05:55N 27°36' W 080°20'0 0.0
2018-Feb-14 05:30N 27°36' W 080°20'0 0.0
2018-Feb-14 05:00N 27°36' W 080°20'0 0.0
2018-Feb-14 04:25N 27°36' W 080°20'0 0.0
2018-Feb-14 03:57N 27°36' W 080°20'0 0.0
2018-Feb-14 03:30N 27°36' W 080°20'0 0.0
2018-Feb-14 02:58N 27°36' W 080°20'0 0.0
2018-Feb-14 02:30N 27°36' W 080°20'0 0.0
2018-Feb-14 02:00N 27°36' W 080°20'0 0.0
2018-Feb-14 01:27N 27°36' W 080°20'0 0.0
2018-Feb-14 01:00N 27°36' W 080°20'0 0.0
2018-Feb-14 00:28N 27°36' W 080°20'0 0.0
2018-Feb-14 00:00N 27°36' W 080°20'0 0.0
2018-Feb-13 23:29N 27°36' W 080°20'0 0.0
2018-Feb-13 23:00N 27°36' W 080°20'0 0.0
2018-Feb-13 22:28N 27°36' W 080°20'0 0.0
2018-Feb-13 22:00N 27°36' W 080°20'0 0.0
2018-Feb-13 21:30N 27°36' W 080°20'0 0.0
2018-Feb-13 20:57N 27°36' W 080°20'0 0.0
2018-Feb-13 18:34N 27°36' W 080°20'0 0.0
2018-Feb-13 18:25N 27°36' W 080°20'0 0.0
2018-Feb-13 17:55N 27°36' W 080°20'4 8.1
2018-Feb-13 17:29N 27°39' W 080°23'1 1.6
2018-Feb-13 16:55N 27°38' W 080°23'3 6.8
2018-Feb-13 16:30N 27°36' W 080°20'3 6.4
2018-Feb-13 15:59N 27°38' W 080°23'0 0.0
2018-Feb-13 15:29N 27°38' W 080°23'2 4.9
2018-Feb-13 15:00N 27°37' W 080°21'1 1.8
2018-Feb-13 14:27N 27°36' W 080°20'0 0.0
2018-Feb-13 13:57N 27°36' W 080°20'0 0.0
2018-Feb-13 13:28N 27°36' W 080°20'0 0.0
2018-Feb-13 13:00N 27°36' W 080°20'0 0.0
2018-Feb-13 12:28N 27°36' W 080°20'0 0.0
2018-Feb-13 12:00N 27°36' W 080°20'0 0.0
2018-Feb-13 11:29N 27°36' W 080°20'0 0.0
2018-Feb-13 10:59N 27°36' W 080°20'0 0.0
2018-Feb-13 10:30N 27°36' W 080°20'0 0.0
2018-Feb-13 09:58N 27°36' W 080°20'0 0.0
2018-Feb-13 09:29N 27°36' W 080°20'0 0.0
2018-Feb-13 08:59N 27°36' W 080°20'0 0.0
2018-Feb-13 08:26N 27°36' W 080°20'0 0.0
2018-Feb-13 07:57N 27°36' W 080°20'0 0.0
2018-Feb-13 07:28N 27°36' W 080°20'0 0.0
2018-Feb-13 06:59N 27°36' W 080°20'0 0.0
2018-Feb-13 06:30N 27°36' W 080°20'0 0.0
2018-Feb-13 06:00N 27°36' W 080°20'0 0.0
2018-Feb-13 05:30N 27°36' W 080°20'0 0.0
2018-Feb-13 04:58N 27°36' W 080°20'0 0.0
2018-Feb-13 04:28N 27°36' W 080°20'0 0.0
2018-Feb-13 03:58N 27°36' W 080°20'0 0.0
2018-Feb-13 03:26N 27°36' W 080°20'0 0.0
2018-Feb-13 03:00N 27°36' W 080°20'0 0.0
2018-Feb-13 02:08N 27°36' W 080°20'0 0.0
2018-Feb-13 01:58N 27°36' W 080°20'1 0.4
2018-Feb-12 23:58N 27°37' W 080°21'0 0.0
2018-Feb-12 23:28N 27°37' W 080°21'0 0.1
2018-Feb-12 22:58N 27°37' W 080°21'1 1.8
2018-Feb-12 22:29N 27°36' W 080°20'0 0.0
2018-Feb-12 22:00N 27°36' W 080°20'0 0.0
2018-Feb-12 21:30N 27°36' W 080°20'0 0.0
2018-Feb-12 20:57N 27°36' W 080°20'0 0.0
2018-Feb-12 20:28N 27°36' W 080°20'0 0.0
2018-Feb-12 19:56N 27°36' W 080°20'0 0.0
2018-Feb-12 19:30N 27°36' W 080°20'0 0.0
2018-Feb-12 18:57N 27°36' W 080°20'0 0.0
2018-Feb-12 18:27N 27°36' W 080°20'3 5.8
2018-Feb-12 17:59N 27°38' W 080°23'0 0.0
2018-Feb-12 17:28N 27°38' W 080°23'0 0.0
2018-Feb-12 16:58N 27°38' W 080°23'3 4.1
2018-Feb-12 16:18N 27°36' W 080°20'0 0.0
2018-Feb-12 15:58N 27°36' W 080°20'4 5.3
2018-Feb-12 15:18N 27°39' W 080°23'0 0.0
2018-Feb-12 14:58N 27°39' W 080°23'0 0.0
2018-Feb-12 14:28N 27°39' W 080°23'4 7.0
2018-Feb-12 13:58N 27°36' W 080°20'0 0.0
2018-Feb-12 13:28N 27°36' W 080°20'0 0.0
2018-Feb-12 13:00N 27°36' W 080°20'0 0.0
2018-Feb-12 12:26N 27°36' W 080°20'0 0.0
2018-Feb-12 11:58N 27°36' W 080°20'0 0.0
2018-Feb-12 11:28N 27°36' W 080°20'0 0.0
2018-Feb-12 10:59N 27°36' W 080°20'0 0.0
2018-Feb-12 10:27N 27°36' W 080°20'0 0.0
2018-Feb-12 09:59N 27°36' W 080°20'0 0.0
2018-Feb-12 09:29N 27°36' W 080°20'0 0.0
2018-Feb-12 08:58N 27°36' W 080°20'0 0.0
2018-Feb-12 08:28N 27°36' W 080°20'0 0.0
2018-Feb-12 07:58N 27°36' W 080°20'0 0.0
2018-Feb-12 07:30N 27°36' W 080°20'0 0.0
2018-Feb-12 06:57N 27°36' W 080°20'0 0.0
2018-Feb-12 06:29N 27°36' W 080°20'0 0.0
2018-Feb-12 06:00N 27°36' W 080°20'0 0.0
2018-Feb-12 05:29N 27°36' W 080°20'0 0.0
2018-Feb-12 05:00N 27°36' W 080°20'0 0.0
2018-Feb-12 04:29N 27°36' W 080°20'0 0.0
2018-Feb-10 20:13N 27°36' W 080°20'0 0.0
2018-Feb-10 20:00N 27°36' W 080°20'0 0.0
2018-Feb-10 19:30N 27°36' W 080°20'0 0.0
2018-Feb-10 18:27N 27°36' W 080°20'0 0.0
2018-Feb-10 17:44N 27°36' W 080°20'0 0.0
2018-Feb-10 16:57N 27°36' W 080°20'0 0.0
2018-Feb-10 16:28N 27°36' W 080°20'0 0.0
2018-Feb-10 15:59N 27°36' W 080°20'0 0.0
2018-Feb-10 15:29N 27°36' W 080°20'0 0.0
2018-Feb-10 14:57N 27°36' W 080°20'0 0.0
2018-Feb-10 14:29N 27°36' W 080°20'0 0.0
2018-Feb-10 13:57N 27°36' W 080°20'0 0.0
2018-Feb-10 13:29N 27°36' W 080°20'0 0.0
2018-Feb-10 12:59N 27°36' W 080°20'0 0.0
2018-Feb-10 12:29N 27°36' W 080°20'0 0.0
2018-Feb-10 10:59N 27°36' W 080°20'0 0.0
2018-Feb-10 05:22N 27°36' W 080°20'0 0.0
2018-Feb-10 04:56N 27°36' W 080°20'0 0.0
2018-Feb-10 04:14N 27°36' W 080°20'0 0.0
2018-Feb-10 03:00N 27°36' W 080°20'0 0.0
2018-Feb-10 00:36N 27°36' W 080°20'0 0.1
2018-Feb-10 00:29N 27°36' W 080°20'0 0.0
2018-Feb-08 01:29N 27°36' W 080°20'0 0.0
2018-Feb-08 00:58N 27°36' W 080°20'0 0.0
2018-Feb-08 00:29N 27°36' W 080°20'0 0.0
2018-Feb-07 23:59N 27°36' W 080°20'0 0.0
2018-Feb-07 23:29N 27°36' W 080°20'0 0.0
2018-Feb-07 22:59N 27°36' W 080°20'0 0.0
2018-Feb-07 22:29N 27°36' W 080°20'0 0.0
2018-Feb-07 21:58N 27°36' W 080°20'0 0.0
2018-Feb-07 21:30N 27°36' W 080°20'0 0.0
2018-Feb-07 05:39N 27°36' W 080°20'0 0.0
2018-Feb-07 05:27N 27°36' W 080°20'0 0.0
2018-Feb-07 04:58N 27°36' W 080°20'0 0.0
2018-Feb-07 04:29N 27°36' W 080°20'0 0.0
2018-Feb-07 03:59N 27°36' W 080°20'0 0.0
2018-Feb-07 03:30N 27°36' W 080°20'0 0.0
2018-Feb-07 02:09N 27°36' W 080°20'0 0.0
2018-Feb-07 01:56N 27°36' W 080°20'0 0.0
2018-Feb-07 01:29N 27°36' W 080°20'0 0.0
2018-Feb-07 00:59N 27°36' W 080°20'0 0.0
2018-Feb-07 00:29N 27°36' W 080°20'0 0.0
2018-Feb-06 23:59N 27°36' W 080°20'0 0.0
2018-Feb-06 23:28N 27°36' W 080°20'0 0.0
2018-Feb-06 22:59N 27°36' W 080°20'0 0.0
2018-Feb-06 22:29N 27°36' W 080°20'3 5.8
2018-Feb-06 21:59N 27°38' W 080°23'1 1.4
2018-Feb-06 21:27N 27°39' W 080°23'3 7.1
2018-Feb-06 20:59N 27°36' W 080°20'0 0.4
2018-Feb-06 20:29N 27°36' W 080°20'4 7.1
2018-Feb-06 19:59N 27°39' W 080°23'0 0.0
2018-Feb-06 19:29N 27°39' W 080°23'0 0.0
2018-Feb-06 18:58N 27°39' W 080°23'0 0.0
2018-Feb-06 18:29N 27°39' W 080°23'0 0.0
2018-Feb-06 17:59N 27°39' W 080°23'4 6.8
2018-Feb-06 17:28N 27°36' W 080°20'0 0.0
2018-Feb-06 16:58N 27°36' W 080°20'0 0.0
2018-Feb-06 16:28N 27°36' W 080°20'0 0.0
2018-Feb-06 15:59N 27°36' W 080°20'0 0.0
2018-Feb-06 15:28N 27°36' W 080°20'0 0.0
2018-Feb-06 14:59N 27°36' W 080°20'0 0.0
2018-Feb-06 14:30N 27°36' W 080°20'0 0.0
2018-Feb-06 13:59N 27°36' W 080°20'0 0.0
2018-Feb-06 13:30N 27°36' W 080°20'0 0.0
2018-Feb-06 12:59N 27°36' W 080°20'0 0.0
2018-Feb-06 12:29N 27°36' W 080°20'0 0.0
2018-Feb-06 11:59N 27°36' W 080°20'0 0.0
2018-Feb-06 11:26N 27°36' W 080°20'0 0.0
2018-Feb-06 07:19N 27°36' W 080°20'0 0.0
2018-Feb-06 06:59N 27°36' W 080°20'0 0.0
2018-Feb-06 06:28N 27°36' W 080°20'0 0.0
2018-Feb-06 06:00N 27°36' W 080°20'0 0.0
2018-Feb-06 05:29N 27°36' W 080°20'0 0.0
2018-Feb-06 04:59N 27°36' W 080°20'0 0.0
2018-Feb-06 04:29N 27°36' W 080°20'0 0.0
2018-Feb-06 04:00N 27°36' W 080°20'0 0.0
2018-Feb-06 03:30N 27°36' W 080°20'3 5.8
2018-Feb-06 02:57N 27°39' W 080°21'3 5.3
2018-Feb-06 02:23N 27°36' W 080°20'0 0.7
2018-Feb-06 01:59N 27°36' W 080°20'0 0.0
2018-Feb-06 01:28N 27°36' W 080°20'0 0.0
2018-Feb-06 01:00N 27°36' W 080°20'0 0.0
2018-Feb-06 00:29N 27°36' W 080°20'0 0.0
2018-Feb-06 00:00N 27°36' W 080°20'0 0.0
2018-Feb-05 23:29N 27°36' W 080°20'0 0.0
2018-Feb-05 22:59N 27°36' W 080°20'0 0.0
2018-Feb-05 22:30N 27°36' W 080°20'0 0.0
2018-Feb-05 21:57N 27°36' W 080°20'0 0.0
2018-Feb-05 21:29N 27°36' W 080°20'0 0.0
2018-Feb-05 21:00N 27°36' W 080°20'0 0.0
2018-Feb-05 20:30N 27°36' W 080°20'0 0.0
2018-Feb-05 20:00N 27°36' W 080°20'0 0.0
2018-Feb-05 19:29N 27°36' W 080°20'0 0.3
2018-Feb-05 18:59N 27°36' W 080°20'0 0.2
2018-Feb-05 18:29N 27°36' W 080°20'0 0.0
2018-Feb-05 17:59N 27°36' W 080°20'0 0.5
2018-Feb-05 17:30N 27°36' W 080°20'  
Track history (hours):
 
Tides and Currents Weather Stations Pressure Air Temp Water Temp Dewpoint Dewpoint Depression Visibility Wind Speed Wind Dir Waves Ship Positions

Trophy

Last reported at 2018-Feb-15 17:15 UTC. Time now 2018-Feb-18 04:45 UTC.
Position N 27°36' W 080°20'.

Length 6 m; draft 1 m.

Type: Pleasure craft. MMSI: 338300588.

Date/timePositionNaut miles runAvg speedWind from/ knotsBaromVisibWave heightAir tempDewpointWater temp
2018-Feb-15 17:15N 27°36' W 080°20'0 0.0
2018-Feb-15 15:12N 27°36' W 080°20'0 0.1
2018-Feb-15 14:58N 27°36' W 080°20'0 0.0
2018-Feb-15 14:29N 27°36' W 080°20'0 0.0
2018-Feb-15 13:59N 27°36' W 080°20'0 0.0
2018-Feb-15 13:08N 27°36' W 080°20'0 0.0
2018-Feb-15 12:55N 27°36' W 080°20'0 0.0
2018-Feb-15 04:10N 27°36' W 080°20'0 0.0
2018-Feb-15 03:54N 27°36' W 080°20'0 0.0
2018-Feb-15 03:30N 27°36' W 080°20'0 0.0
2018-Feb-15 03:00N 27°36' W 080°20'0 0.0
2018-Feb-15 02:28N 27°36' W 080°20'0 0.0
2018-Feb-15 01:59N 27°36' W 080°20'0 0.0
2018-Feb-15 01:29N 27°36' W 080°20'0 0.0
2018-Feb-14 23:30N 27°36' W 080°20'0 0.0
2018-Feb-14 23:00N 27°36' W 080°20'0 0.0
2018-Feb-14 22:27N 27°36' W 080°20'0 0.0
2018-Feb-14 22:00N 27°36' W 080°20'0 0.0
2018-Feb-14 21:30N 27°36' W 080°20'0 0.0
2018-Feb-14 20:57N 27°36' W 080°20'0 0.0
2018-Feb-14 20:27N 27°36' W 080°20'0 0.0
2018-Feb-14 19:59N 27°36' W 080°20'0 0.0
2018-Feb-14 19:29N 27°36' W 080°20'0 0.0
2018-Feb-14 19:00N 27°36' W 080°20'0 0.0
2018-Feb-14 18:30N 27°36' W 080°20'3 6.2
2018-Feb-14 17:58N 27°38' W 080°23'0 0.5
2018-Feb-14 17:30N 27°38' W 080°23'0 0.0
2018-Feb-14 15:50N 27°38' W 080°23'0 0.0
2018-Feb-14 15:25N 27°38' W 080°23'3 8.4
2018-Feb-14 15:00N 27°36' W 080°20'0 0.0
2018-Feb-14 14:27N 27°36' W 080°20'0 0.0
2018-Feb-14 13:59N 27°36' W 080°20'0 0.0
2018-Feb-14 13:29N 27°36' W 080°20'0 0.0
2018-Feb-14 12:58N 27°36' W 080°20'0 0.0
2018-Feb-14 12:25N 27°36' W 080°20'0 0.0
2018-Feb-14 05:55N 27°36' W 080°20'0 0.0
2018-Feb-14 05:30N 27°36' W 080°20'0 0.0
2018-Feb-14 05:00N 27°36' W 080°20'0 0.0
2018-Feb-14 04:25N 27°36' W 080°20'0 0.0
2018-Feb-14 03:57N 27°36' W 080°20'0 0.0
2018-Feb-14 03:30N 27°36' W 080°20'0 0.0
2018-Feb-14 02:58N 27°36' W 080°20'0 0.0
2018-Feb-14 02:30N 27°36' W 080°20'0 0.0
2018-Feb-14 02:00N 27°36' W 080°20'0 0.0
2018-Feb-14 01:27N 27°36' W 080°20'0 0.0
2018-Feb-14 01:00N 27°36' W 080°20'0 0.0
2018-Feb-14 00:28N 27°36' W 080°20'0 0.0
2018-Feb-14 00:00N 27°36' W 080°20'0 0.0
2018-Feb-13 23:29N 27°36' W 080°20'0 0.0
2018-Feb-13 23:00N 27°36' W 080°20'0 0.0
2018-Feb-13 22:28N 27°36' W 080°20'0 0.0
2018-Feb-13 22:00N 27°36' W 080°20'0 0.0
2018-Feb-13 21:30N 27°36' W 080°20'0 0.0
2018-Feb-13 20:57N 27°36' W 080°20'0 0.0
2018-Feb-13 18:34N 27°36' W 080°20'0 0.0
2018-Feb-13 18:25N 27°36' W 080°20'0 0.0
2018-Feb-13 17:55N 27°36' W 080°20'4 8.1
2018-Feb-13 17:29N 27°39' W 080°23'1 1.6
2018-Feb-13 16:55N 27°38' W 080°23'3 6.8
2018-Feb-13 16:30N 27°36' W 080°20'3 6.4
2018-Feb-13 15:59N 27°38' W 080°23'0 0.0
2018-Feb-13 15:29N 27°38' W 080°23'2 4.9
2018-Feb-13 15:00N 27°37' W 080°21'1 1.8
2018-Feb-13 14:27N 27°36' W 080°20'0 0.0
2018-Feb-13 13:57N 27°36' W 080°20'0 0.0
2018-Feb-13 13:28N 27°36' W 080°20'0 0.0
2018-Feb-13 13:00N 27°36' W 080°20'0 0.0
2018-Feb-13 12:28N 27°36' W 080°20'0 0.0
2018-Feb-13 12:00N 27°36' W 080°20'0 0.0
2018-Feb-13 11:29N 27°36' W 080°20'0 0.0
2018-Feb-13 10:59N 27°36' W 080°20'0 0.0
2018-Feb-13 10:30N 27°36' W 080°20'0 0.0
2018-Feb-13 09:58N 27°36' W 080°20'0 0.0
2018-Feb-13 09:29N 27°36' W 080°20'0 0.0
2018-Feb-13 08:59N 27°36' W 080°20'0 0.0
2018-Feb-13 08:26N 27°36' W 080°20'0 0.0
2018-Feb-13 07:57N 27°36' W 080°20'0 0.0
2018-Feb-13 07:28N 27°36' W 080°20'0 0.0
2018-Feb-13 06:59N 27°36' W 080°20'0 0.0
2018-Feb-13 06:30N 27°36' W 080°20'0 0.0
2018-Feb-13 06:00N 27°36' W 080°20'0 0.0
2018-Feb-13 05:30N 27°36' W 080°20'0 0.0
2018-Feb-13 04:58N 27°36' W 080°20'0 0.0
2018-Feb-13 04:28N 27°36' W 080°20'0 0.0
2018-Feb-13 03:58N 27°36' W 080°20'0 0.0
2018-Feb-13 03:26N 27°36' W 080°20'0 0.0
2018-Feb-13 03:00N 27°36' W 080°20'0 0.0
2018-Feb-13 02:08N 27°36' W 080°20'0 0.0
2018-Feb-13 01:58N 27°36' W 080°20'1 0.4
2018-Feb-12 23:58N 27°37' W 080°21'0 0.0
2018-Feb-12 23:28N 27°37' W 080°21'0 0.1
2018-Feb-12 22:58N 27°37' W 080°21'1 1.8
2018-Feb-12 22:29N 27°36' W 080°20'0 0.0
2018-Feb-12 22:00N 27°36' W 080°20'0 0.0
2018-Feb-12 21:30N 27°36' W 080°20'0 0.0
2018-Feb-12 20:57N 27°36' W 080°20'0 0.0
2018-Feb-12 20:28N 27°36' W 080°20'0 0.0
2018-Feb-12 19:56N 27°36' W 080°20'0 0.0
2018-Feb-12 19:30N 27°36' W 080°20'0 0.0
2018-Feb-12 18:57N 27°36' W 080°20'0 0.0
2018-Feb-12 18:27N 27°36' W 080°20'3 5.8
2018-Feb-12 17:59N 27°38' W 080°23'0 0.0
2018-Feb-12 17:28N 27°38' W 080°23'0 0.0
2018-Feb-12 16:58N 27°38' W 080°23'3 4.1
2018-Feb-12 16:18N 27°36' W 080°20'0 0.0
2018-Feb-12 15:58N 27°36' W 080°20'4 5.3
2018-Feb-12 15:18N 27°39' W 080°23'0 0.0
2018-Feb-12 14:58N 27°39' W 080°23'0 0.0
2018-Feb-12 14:28N 27°39' W 080°23'4 7.0
2018-Feb-12 13:58N 27°36' W 080°20'0 0.0
2018-Feb-12 13:28N 27°36' W 080°20'0 0.0
2018-Feb-12 13:00N 27°36' W 080°20'0 0.0
2018-Feb-12 12:26N 27°36' W 080°20'0 0.0
2018-Feb-12 11:58N 27°36' W 080°20'0 0.0
2018-Feb-12 11:28N 27°36' W 080°20'0 0.0
2018-Feb-12 10:59N 27°36' W 080°20'0 0.0
2018-Feb-12 10:27N 27°36' W 080°20'0 0.0
2018-Feb-12 09:59N 27°36' W 080°20'0 0.0
2018-Feb-12 09:29N 27°36' W 080°20'0 0.0
2018-Feb-12 08:58N 27°36' W 080°20'0 0.0
2018-Feb-12 08:28N 27°36' W 080°20'0 0.0
2018-Feb-12 07:58N 27°36' W 080°20'0 0.0
2018-Feb-12 07:30N 27°36' W 080°20'0 0.0
2018-Feb-12 06:57N 27°36' W 080°20'0 0.0
2018-Feb-12 06:29N 27°36' W 080°20'0 0.0
2018-Feb-12 06:00N 27°36' W 080°20'0 0.0
2018-Feb-12 05:29N 27°36' W 080°20'0 0.0
2018-Feb-12 05:00N 27°36' W 080°20'0 0.0
2018-Feb-12 04:29N 27°36' W 080°20'0 0.0
2018-Feb-10 20:13N 27°36' W 080°20'0 0.0
2018-Feb-10 20:00N 27°36' W 080°20'0 0.0
2018-Feb-10 19:30N 27°36' W 080°20'0 0.0
2018-Feb-10 18:27N 27°36' W 080°20'0 0.0
2018-Feb-10 17:44N 27°36' W 080°20'0 0.0
2018-Feb-10 16:57N 27°36' W 080°20'0 0.0
2018-Feb-10 16:28N 27°36' W 080°20'0 0.0
2018-Feb-10 15:59N 27°36' W 080°20'0 0.0
2018-Feb-10 15:29N 27°36' W 080°20'0 0.0
2018-Feb-10 14:57N 27°36' W 080°20'0 0.0
2018-Feb-10 14:29N 27°36' W 080°20'0 0.0
2018-Feb-10 13:57N 27°36' W 080°20'0 0.0
2018-Feb-10 13:29N 27°36' W 080°20'0 0.0
2018-Feb-10 12:59N 27°36' W 080°20'0 0.0
2018-Feb-10 12:29N 27°36' W 080°20'0 0.0
2018-Feb-10 10:59N 27°36' W 080°20'0 0.0
2018-Feb-10 05:22N 27°36' W 080°20'0 0.0
2018-Feb-10 04:56N 27°36' W 080°20'0 0.0
2018-Feb-10 04:14N 27°36' W 080°20'0 0.0
2018-Feb-10 03:00N 27°36' W 080°20'0 0.0
2018-Feb-10 00:36N 27°36' W 080°20'0 0.1
2018-Feb-10 00:29N 27°36' W 080°20'0 0.0
2018-Feb-08 01:29N 27°36' W 080°20'0 0.0
2018-Feb-08 00:58N 27°36' W 080°20'0 0.0
2018-Feb-08 00:29N 27°36' W 080°20'0 0.0
2018-Feb-07 23:59N 27°36' W 080°20'0 0.0
2018-Feb-07 23:29N 27°36' W 080°20'0 0.0
2018-Feb-07 22:59N 27°36' W 080°20'0 0.0
2018-Feb-07 22:29N 27°36' W 080°20'0 0.0
2018-Feb-07 21:58N 27°36' W 080°20'0 0.0
2018-Feb-07 21:30N 27°36' W 080°20'0 0.0
2018-Feb-07 05:39N 27°36' W 080°20'0 0.0
2018-Feb-07 05:27N 27°36' W 080°20'0 0.0
2018-Feb-07 04:58N 27°36' W 080°20'0 0.0
2018-Feb-07 04:29N 27°36' W 080°20'0 0.0
2018-Feb-07 03:59N 27°36' W 080°20'0 0.0
2018-Feb-07 03:30N 27°36' W 080°20'0 0.0
2018-Feb-07 02:09N 27°36' W 080°20'0 0.0
2018-Feb-07 01:56N 27°36' W 080°20'0 0.0
2018-Feb-07 01:29N 27°36' W 080°20'0 0.0
2018-Feb-07 00:59N 27°36' W 080°20'0 0.0
2018-Feb-07 00:29N 27°36' W 080°20'0 0.0
2018-Feb-06 23:59N 27°36' W 080°20'0 0.0
2018-Feb-06 23:28N 27°36' W 080°20'0 0.0
2018-Feb-06 22:59N 27°36' W 080°20'0 0.0
2018-Feb-06 22:29N 27°36' W 080°20'3 5.8
2018-Feb-06 21:59N 27°38' W 080°23'1 1.4
2018-Feb-06 21:27N 27°39' W 080°23'3 7.1
2018-Feb-06 20:59N 27°36' W 080°20'0 0.4
2018-Feb-06 20:29N 27°36' W 080°20'4 7.1
2018-Feb-06 19:59N 27°39' W 080°23'0 0.0
2018-Feb-06 19:29N 27°39' W 080°23'0 0.0
2018-Feb-06 18:58N 27°39' W 080°23'0 0.0
2018-Feb-06 18:29N 27°39' W 080°23'0 0.0
2018-Feb-06 17:59N 27°39' W 080°23'4 6.8
2018-Feb-06 17:28N 27°36' W 080°20'0 0.0
2018-Feb-06 16:58N 27°36' W 080°20'0 0.0
2018-Feb-06 16:28N 27°36' W 080°20'0 0.0
2018-Feb-06 15:59N 27°36' W 080°20'0 0.0
2018-Feb-06 15:28N 27°36' W 080°20'0 0.0
2018-Feb-06 14:59N 27°36' W 080°20'0 0.0
2018-Feb-06 14:30N 27°36' W 080°20'0 0.0
2018-Feb-06 13:59N 27°36' W 080°20'0 0.0
2018-Feb-06 13:30N 27°36' W 080°20'0 0.0
2018-Feb-06 12:59N 27°36' W 080°20'0 0.0
2018-Feb-06 12:29N 27°36' W 080°20'0 0.0
2018-Feb-06 11:59N 27°36' W 080°20'0 0.0
2018-Feb-06 11:26N 27°36' W 080°20'0 0.0
2018-Feb-06 07:19N 27°36' W 080°20'0 0.0
2018-Feb-06 06:59N 27°36' W 080°20'0 0.0
2018-Feb-06 06:28N 27°36' W 080°20'0 0.0
2018-Feb-06 06:00N 27°36' W 080°20'0 0.0
2018-Feb-06 05:29N 27°36' W 080°20'0 0.0
2018-Feb-06 04:59N 27°36' W 080°20'0 0.0
2018-Feb-06 04:29N 27°36' W 080°20'0 0.0
2018-Feb-06 04:00N 27°36' W 080°20'0 0.0
2018-Feb-06 03:30N 27°36' W 080°20'3 5.8
2018-Feb-06 02:57N 27°39' W 080°21'3 5.3
2018-Feb-06 02:23N 27°36' W 080°20'0 0.7
2018-Feb-06 01:59N 27°36' W 080°20'0 0.0
2018-Feb-06 01:28N 27°36' W 080°20'0 0.0
2018-Feb-06 01:00N 27°36' W 080°20'0 0.0
2018-Feb-06 00:29N 27°36' W 080°20'0 0.0
2018-Feb-06 00:00N 27°36' W 080°20'0 0.0
2018-Feb-05 23:29N 27°36' W 080°20'0 0.0
2018-Feb-05 22:59N 27°36' W 080°20'0 0.0
2018-Feb-05 22:30N 27°36' W 080°20'0 0.0
2018-Feb-05 21:57N 27°36' W 080°20'0 0.0
2018-Feb-05 21:29N 27°36' W 080°20'0 0.0
2018-Feb-05 21:00N 27°36' W 080°20'0 0.0
2018-Feb-05 20:30N 27°36' W 080°20'0 0.0
2018-Feb-05 20:00N 27°36' W 080°20'0 0.0
2018-Feb-05 19:29N 27°36' W 080°20'0 0.3
2018-Feb-05 18:59N 27°36' W 080°20'0 0.2
2018-Feb-05 18:29N 27°36' W 080°20'0 0.0
2018-Feb-05 17:59N 27°36' W 080°20'0 0.5
2018-Feb-05 17:30N 27°36' W 080°20'  

Dump ship's entire track history